Time;durP1;ratioP1;P1;durP2;ratioP2;P2;SDS_P1;SDS_P2;PMS_P1;PMS_P2;Temp;Humidity;BMP_temperature;BMP_pressure;BME280_temperature;BME280_humidity;BME280_pressure;Samples;Min_cycle;Max_cycle;Signal;HPM_P1;HPM_P2
2021/12/01 00:00:10;;;;;;;22.27;2.45;;;;;;;23.01;49.71;98239.75;7312842;19;129842;-46
2021/12/01 00:02:35;;;;;;;41.53;4.60;;;;;;;23.07;50.01;98244.31;7310561;19;130730;-45
2021/12/01 00:05:00;;;;;;;13.88;1.95;;;;;;;22.99;51.14;98234.72;7311886;19;130333;-47
2021/12/01 00:07:26;;;;;;;74.72;8.40;;;;;;;22.94;51.27;98228.41;7310965;19;129386;-48
2021/12/01 00:09:52;;;;;;;40.30;4.43;;;;;;;22.85;51.26;98225.06;7310977;19;129462;-48
2021/12/01 00:12:17;;;;;;;32.20;3.83;;;;;;;22.82;50.71;98220.19;7312088;19;130240;-48
2021/12/01 00:14:43;;;;;;;25.77;3.05;;;;;;;22.84;50.40;98235.72;7310417;19;130386;-47
2021/12/01 00:17:11;;;;;;;22.42;2.58;;;;;;;22.87;50.31;98238.75;7309605;19;129644;-46
2021/12/01 00:19:37;;;;;;;23.52;2.90;;;;;;;22.95;50.28;98235.25;7313743;19;129250;-49
2021/12/01 00:22:02;;;;;;;31.90;3.30;;;;;;;23.02;49.62;98244.03;7311388;19;129837;-47
2021/12/01 00:24:28;;;;;;;34.40;3.42;;;;;;;23.10;49.33;98243.94;7308013;19;129384;-49
2021/12/01 00:26:53;;;;;;;22.55;3.20;;;;;;;23.19;49.30;98248.06;7311649;19;129310;-47
2021/12/01 00:29:18;;;;;;;37.78;4.43;;;;;;;23.16;49.59;98232.72;7311340;19;129482;-49
2021/12/01 00:31:44;;;;;;;25.48;3.28;;;;;;;23.34;48.92;98240.25;7307668;19;129382;-46
2021/12/01 00:34:09;;;;;;;24.95;2.97;;;;;;;23.32;49.11;98224.66;7309994;19;130013;-48
2021/12/01 00:36:35;;;;;;;27.13;3.35;;;;;;;23.43;48.72;98226.81;7309339;19;130318;-48
2021/12/01 00:39:00;;;;;;;19.30;2.40;;;;;;;23.52;48.25;98227.53;7309268;19;128877;-45
2021/12/01 00:41:25;;;;;;;32.70;3.75;;;;;;;23.53;48.88;98229.16;7310490;19;129194;-49
2021/12/01 00:43:51;;;;;;;63.10;7.50;;;;;;;23.45;48.30;98211.72;7309088;19;129289;-44
2021/12/01 00:46:23;;;;;;;31.53;3.70;;;;;;;23.46;48.78;98223.81;7310253;19;129649;-46
2021/12/01 00:48:48;;;;;;;22.73;2.75;;;;;;;23.35;48.80;98211.19;7310765;19;129780;-45
2021/12/01 00:51:16;;;;;;;40.05;4.43;;;;;;;23.40;48.50;98218.50;7311292;19;128985;-45
2021/12/01 00:53:42;;;;;;;24.77;3.28;;;;;;;23.33;49.08;98234.16;7309852;19;129931;-47
2021/12/01 00:56:08;;;;;;;16.02;2.15;;;;;;;23.26;49.44;98225.38;7306512;19;129528;-45
2021/12/01 00:58:33;;;;;;;22.88;2.22;;;;;;;23.19;49.58;98232.34;7311593;19;129005;-44
2021/12/01 01:01:00;;;;;;;42.67;4.32;;;;;;;23.13;49.68;98233.06;7311041;19;129315;-46
2021/12/01 01:03:28;;;;;;;34.60;3.53;;;;;;;23.06;49.79;98237.41;7313003;19;130946;-47
2021/12/01 01:05:53;;;;;;;11.35;1.55;;;;;;;23.02;49.96;98236.16;7308376;19;128798;-44
2021/12/01 01:08:19;;;;;;;26.95;3.15;;;;;;;22.89;51.03;98215.03;7311486;19;129602;-46
2021/12/01 01:10:57;;;;;;;13.82;1.88;;;;;;;22.93;50.83;98232.00;7312333;19;130075;-45
2021/12/01 01:16:25;;;;;;;31.55;3.38;;;;;;;22.89;51.09;98225.50;7307040;19;129979;-46
2021/12/01 01:18:57;;;;;;;17.38;2.08;;;;;;;22.89;52.26;98230.75;7309038;19;130660;-46
2021/12/01 01:21:25;;;;;;;32.88;3.28;;;;;;;22.86;51.56;98225.84;7312669;19;129121;-48
2021/12/01 01:23:51;;;;;;;29.05;3.42;;;;;;;22.83;51.95;98224.41;7313010;19;131732;-46
2021/12/01 01:26:19;;;;;;;31.67;3.50;;;;;;;22.87;51.57;98223.03;7310186;19;129168;-46
2021/12/01 01:28:45;;;;;;;19.95;2.17;;;;;;;22.83;50.83;98220.97;7312188;19;128938;-45
2021/12/01 01:31:11;;;;;;;15.27;1.67;;;;;;;22.76;51.71;98204.34;7313759;19;130554;-47
2021/12/01 01:33:37;;;;;;;19.70;2.17;;;;;;;22.72;51.81;98203.09;7311896;19;129812;-46
2021/12/01 01:36:03;;;;;;;17.33;1.98;;;;;;;22.67;51.48;98210.69;7310112;19;131423;-49
2021/12/01 01:38:31;;;;;;;31.93;3.77;;;;;;;22.70;51.15;98207.69;7308765;19;129524;-46
2021/12/01 01:40:57;;;;;;;20.48;2.42;;;;;;;22.78;51.04;98207.59;7311496;19;130102;-45
2021/12/01 01:43:23;;;;;;;25.45;2.83;;;;;;;22.85;50.98;98208.50;7312088;19;129567;-47
2021/12/01 01:45:52;;;;;;;10.43;1.58;;;;;;;22.92;50.86;98198.94;7309621;19;129172;-45
2021/12/01 01:48:22;;;;;;;18.67;2.30;;;;;;;23.03;49.89;98206.31;7312942;19;128950;-48
2021/12/01 01:50:48;;;;;;;26.65;2.95;;;;;;;23.09;50.14;98205.59;7312291;19;129102;-46
2021/12/01 01:53:20;;;;;;;21.65;2.45;;;;;;;23.17;50.14;98203.69;7311939;19;130342;-46
2021/12/01 01:55:49;;;;;;;25.25;2.63;;;;;;;23.25;49.12;98203.56;7310009;19;130014;-49
2021/12/01 01:58:15;;;;;;;18.92;1.98;;;;;;;23.32;49.81;98195.03;7311667;19;129952;-48
2021/12/01 02:00:49;;;;;;;23.77;2.67;;;;;;;23.40;49.03;98189.66;7311823;19;130247;-47
2021/12/01 02:03:15;;;;;;;28.48;2.90;;;;;;;23.45;48.81;98180.25;7311941;19;130468;-49
2021/12/01 02:05:41;;;;;;;18.85;2.03;;;;;;;23.46;49.11;98187.09;7309419;19;129504;-48
2021/12/01 02:08:15;;;;;;;21.65;2.53;;;;;;;23.46;48.87;98178.41;7311328;19;129029;-46
2021/12/01 02:10:43;;;;;;;48.25;5.32;;;;;;;23.45;49.29;98179.44;7307831;19;130225;-48
2021/12/01 02:13:08;;;;;;;19.27;2.13;;;;;;;23.40;48.85;98177.38;7309564;19;130504;-48
2021/12/01 02:15:35;;;;;;;21.42;2.38;;;;;;;23.34;49.33;98175.47;7306694;19;130249;-47
2021/12/01 02:18:01;;;;;;;17.08;1.80;;;;;;;23.27;49.86;98177.19;7309427;19;129475;-47
2021/12/01 02:20:26;;;;;;;48.83;4.65;;;;;;;23.18;49.63;98158.13;7305189;19;129124;-48
2021/12/01 02:22:51;;;;;;;20.83;2.53;;;;;;;23.12;49.86;98169.34;7308361;19;129990;-47
2021/12/01 02:25:17;;;;;;;8.25;1.73;;;;;;;23.02;49.81;98163.56;7307837;19;129802;-75
2021/12/01 02:27:42;;;;;;;10.65;1.88;;;;;;;22.98;50.83;98164.13;7311702;19;130176;-76
2021/12/01 02:30:09;;;;;;;23.40;4.47;;;;;;;22.91;50.99;98165.84;7319355;19;129298;-77
2021/12/01 02:32:34;;;;;;;12.25;1.98;;;;;;;22.86;51.18;98157.72;7318356;19;130336;-76
2021/12/01 02:34:59;;;;;;;56.67;5.28;;;;;;;22.82;51.36;98164.31;7316858;19;129630;-53
2021/12/01 02:37:25;;;;;;;25.08;3.08;;;;;;;22.77;51.37;98151.78;7315082;19;129556;-53
2021/12/01 02:39:51;;;;;;;25.75;3.08;;;;;;;22.77;51.54;98145.72;7315034;19;129628;-53
2021/12/01 02:42:20;;;;;;;23.55;2.65;;;;;;;22.72;51.99;98142.84;7311656;19;129652;-48
2021/12/01 02:44:46;;;;;;;19.70;2.28;;;;;;;22.77;51.39;98135.25;7315180;19;129030;-47
2021/12/01 02:47:12;;;;;;;16.03;2.23;;;;;;;22.73;52.02;98118.25;7310085;19;129272;-49
2021/12/01 02:49:38;;;;;;;25.25;2.85;;;;;;;22.74;52.62;98127.75;7316330;19;130030;-50
2021/12/01 02:52:04;;;;;;;15.27;2.27;;;;;;;22.70;51.62;98131.72;7313040;19;130347;-49
2021/12/01 02:54:29;;;;;;;21.27;2.67;;;;;;;22.63;51.78;98118.53;7314992;19;130295;-49
2021/12/01 02:56:55;;;;;;;18.00;1.98;;;;;;;22.62;52.31;98121.34;7318715;19;129323;-50
2021/12/01 02:59:22;;;;;;;15.33;2.13;;;;;;;22.61;52.09;98119.72;7311021;19;129940;-49
2021/12/01 03:01:47;;;;;;;;;;;;;;;22.62;51.65;98114.31;7314103;19;130299;-51
2021/12/01 03:04:14;;;;;;;20.73;3.00;;;;;;;22.74;51.82;98117.25;7306363;19;129814;-50
2021/12/01 03:06:40;;;;;;;20.67;3.03;;;;;;;22.82;50.62;98114.53;7313646;19;129384;-47
2021/12/01 03:09:07;;;;;;;20.98;3.42;;;;;;;22.88;51.11;98114.63;7309963;19;129756;-46
2021/12/01 03:11:33;;;;;;;25.70;3.55;;;;;;;22.97;50.74;98104.84;7311516;19;130865;-53
2021/12/01 03:13:59;;;;;;;20.23;2.65;;;;;;;23.05;50.70;98095.06;7307303;19;129119;-50
2021/12/01 03:16:24;;;;;;;28.60;4.03;;;;;;;23.14;50.40;98099.19;7313715;19;130832;-50
2021/12/01 03:18:50;;;;;;;31.63;4.15;;;;;;;23.16;49.66;98089.31;7311353;19;129552;-48
2021/12/01 03:21:16;;;;;;;11.25;2.15;;;;;;;23.31;49.58;98093.72;7308052;19;129578;-50
2021/12/01 03:23:42;;;;;;;27.77;4.53;;;;;;;23.35;49.49;98090.56;7311557;19;129123;-49
2021/12/01 03:26:08;;;;;;;7.82;1.88;;;;;;;23.43;49.17;98087.00;7312869;19;129588;-82
2021/12/01 03:28:34;;;;;;;3.42;1.15;;;;;;;23.42;49.40;98082.75;7319009;19;132606;-79
2021/12/01 03:31:00;;;;;;;7.22;1.73;;;;;;;23.37;49.63;98082.50;7320452;19;129589;-82
2021/12/01 03:33:26;;;;;;;11.63;2.50;;;;;;;23.36;49.34;98073.81;7333407;19;129102;-82
2021/12/01 03:35:52;;;;;;;58.93;6.90;;;;;;;23.30;49.95;98065.88;7328176;19;129223;-48
2021/12/01 03:38:21;;;;;;;19.80;2.42;;;;;;;23.21;50.17;98065.97;7311371;19;129580;-48
2021/12/01 03:40:48;;;;;;;22.70;2.85;;;;;;;23.16;50.02;98072.78;7315438;19;130398;-49
2021/12/01 03:43:14;;;;;;;19.05;2.38;;;;;;;23.10;50.02;98060.44;7309553;19;129179;-49
2021/12/01 03:45:39;;;;;;;22.25;2.42;;;;;;;23.02;50.28;98060.53;7313128;19;128952;-49
2021/12/01 03:48:05;;;;;;;23.85;2.75;;;;;;;22.95;50.55;98057.84;7310122;19;129508;-47
2021/12/01 03:50:30;;;;;;;22.13;2.67;;;;;;;22.80;51.38;98032.69;7314436;19;129031;-48
2021/12/01 03:52:56;;;;;;;12.27;1.95;;;;;;;22.85;51.22;98046.03;7310606;19;129959;-47
2021/12/01 03:55:24;;;;;;;19.58;2.97;;;;;;;22.98;50.25;98018.16;7311036;19;128982;-48
2021/12/01 03:57:49;;;;;;;14.45;2.17;;;;;;;23.46;49.77;98021.03;7307473;19;130731;-49
2021/12/01 04:00:16;;;;;;;32.42;4.00;;;;;;;23.84;48.71;98012.66;7312271;19;129199;-50
2021/12/01 04:02:43;;;;;;;27.67;3.00;;;;;;;24.27;47.31;97987.88;7309561;19;129843;-48
2021/12/01 04:05:09;;;;;;;;;;;;;;;24.75;46.63;97990.47;7307198;19;129542;-48
2021/12/01 04:07:35;;;;;;;22.45;2.15;;;;;;;25.21;45.27;97980.84;7312245;19;129034;-48
2021/12/01 04:10:02;;;;;;;26.15;2.85;;;;;;;25.65;44.38;97973.19;7312176;19;129788;-49
2021/12/01 04:12:27;;;;;;;34.45;3.38;;;;;;;25.91;43.25;97975.75;7309872;19;129915;-48
2021/12/01 04:14:53;;;;;;;23.83;2.47;;;;;;;26.14;43.08;97967.41;7311933;19;128943;-49
2021/12/01 04:17:18;;;;;;;33.25;3.63;;;;;;;26.39;42.88;97969.16;7311338;19;130118;-48
2021/12/01 04:19:45;;;;;;;28.15;2.90;;;;;;;26.56;42.00;97951.81;7308673;19;129184;-45
2021/12/01 04:22:10;;;;;;;14.02;1.75;;;;;;;26.71;42.12;97951.53;7312030;19;128894;-48
2021/12/01 04:24:36;;;;;;;24.10;2.38;;;;;;;26.80;42.00;97955.56;7308927;19;129075;-47
2021/12/01 04:27:01;;;;;;;12.93;1.67;;;;;;;26.84;41.64;97949.63;7310641;19;130581;-48
2021/12/01 04:29:27;;;;;;;33.77;3.17;;;;;;;26.91;41.10;97939.03;7310713;19;129300;-49
2021/12/01 04:31:53;;;;;;;47.05;4.43;;;;;;;27.04;41.23;97938.16;7311159;19;129504;-48
2021/12/01 04:34:20;;;;;;;37.03;3.63;;;;;;;27.06;41.02;97926.34;7307840;19;129639;-49
2021/12/01 04:36:48;;;;;;;25.65;2.60;;;;;;;27.20;40.89;97929.69;7310507;19;130138;-45
2021/12/01 04:39:15;;;;;;;26.83;2.83;;;;;;;27.24;41.31;97928.25;7310367;19;129542;-45
2021/12/01 04:41:51;;;;;;;32.65;2.92;;;;;;;27.30;40.95;97914.22;7310620;19;129121;-46
2021/12/01 04:44:17;;;;;;;19.88;2.20;;;;;;;27.33;40.27;97909.31;7309399;19;129046;-47
2021/12/01 04:46:44;;;;;;;43.58;4.20;;;;;;;27.40;40.52;97903.97;7310337;19;129604;-47
2021/12/01 04:49:11;;;;;;;28.90;2.95;;;;;;;27.43;40.75;97895.63;7309305;19;130038;-48
2021/12/01 04:51:40;;;;;;;45.60;4.10;;;;;;;27.31;41.14;97887.59;7304706;19;130806;-46
2021/12/01 04:54:05;;;;;;;25.13;2.38;;;;;;;27.17;41.43;97893.19;7309313;19;129208;-47
2021/12/01 04:56:30;;;;;;;56.50;5.00;;;;;;;26.94;41.08;97877.94;7312042;19;130124;-47
2021/12/01 04:58:56;;;;;;;40.27;3.90;;;;;;;26.77;41.56;97872.44;7307909;19;130575;-48
2021/12/01 05:01:22;;;;;;;45.30;4.30;;;;;;;26.55;42.78;97875.56;7309565;19;128984;-48
2021/12/01 05:03:47;;;;;;;49.27;5.07;;;;;;;26.34;42.58;97863.56;7307572;19;128949;-46
2021/12/01 05:06:13;;;;;;;7.20;0.90;;;;;;;26.29;43.13;97859.94;7307815;19;128919;-48
2021/12/01 05:08:39;;;;;;;25.83;2.35;;;;;;;26.18;43.66;97858.75;7312045;19;129116;-48
2021/12/01 05:11:05;;;;;;;16.87;2.00;;;;;;;26.05;43.87;97864.09;7304494;19;129278;-51
2021/12/01 05:13:30;;;;;;;30.15;3.67;;;;;;;25.97;44.08;97850.34;7309383;19;131249;-49
2021/12/01 05:15:56;;;;;;;37.80;3.75;;;;;;;25.90;44.52;97852.22;7302481;19;130600;-47
2021/12/01 05:18:22;;;;;;;35.60;3.33;;;;;;;25.89;43.79;97851.41;7310075;19;129752;-47
2021/12/01 05:20:47;;;;;;;32.60;3.13;;;;;;;25.87;44.08;97848.16;7308888;19;129190;-48
2021/12/01 05:23:15;;;;;;;20.33;2.28;;;;;;;25.83;44.32;97838.25;7310690;19;129079;-48
2021/12/01 05:25:44;;;;;;;33.63;3.58;;;;;;;25.79;44.50;97837.88;7305023;19;130618;-46
2021/12/01 05:28:10;;;;;;;26.92;2.90;;;;;;;25.79;44.75;97832.59;7311620;19;129687;-46
2021/12/01 05:30:36;;;;;;;77.10;7.70;;;;;;;25.75;44.72;97826.13;7306852;19;129567;-48
2021/12/01 05:33:06;;;;;;;19.43;1.87;;;;;;;25.80;44.32;97821.03;7307408;19;129305;-48
2021/12/01 05:35:32;;;;;;;51.97;4.40;;;;;;;25.81;44.56;97819.22;7305108;19;130214;-46
2021/12/01 05:37:58;;;;;;;14.65;1.48;;;;;;;25.78;44.74;97809.94;7309721;19;130404;-48
2021/12/01 05:40:23;;;;;;;28.23;2.85;;;;;;;25.70;44.48;97791.75;7308383;19;130552;-48
2021/12/01 05:42:49;;;;;;;30.30;3.40;;;;;;;25.83;44.43;97802.22;7309450;19;129824;-48
2021/12/01 05:45:15;;;;;;;26.47;2.67;;;;;;;25.81;44.37;97808.69;7307614;19;130504;-48
2021/12/01 05:47:40;;;;;;;31.15;3.17;;;;;;;25.81;44.62;97804.25;7308732;19;131359;-49
2021/12/01 05:50:06;;;;;;;32.30;3.00;;;;;;;25.83;44.72;97799.59;7309700;19;129000;-48
2021/12/01 05:52:32;;;;;;;23.43;2.33;;;;;;;25.71;44.96;97788.09;7310779;19;129191;-48
2021/12/01 05:55:00;;;;;;;30.10;2.97;;;;;;;25.78;44.21;97788.88;7309945;19;130340;-49
2021/12/01 05:57:25;;;;;;;60.40;5.72;;;;;;;25.82;44.94;97794.53;7305476;19;130783;-48
2021/12/01 05:59:51;;;;;;;37.07;3.50;;;;;;;25.79;44.84;97793.09;7305827;19;129644;-47
2021/12/01 06:02:16;;;;;;;28.90;3.00;;;;;;;25.80;44.65;97796.56;7315057;19;129037;-46
2021/12/01 06:04:42;;;;;;;25.67;2.58;;;;;;;25.90;40.33;97795.06;7322083;19;129581;-47
2021/12/01 06:07:07;;;;;;;24.50;2.37;;;;;;;25.82;39.56;97800.59;7320610;19;130963;-48
2021/12/01 06:09:33;;;;;;;31.80;3.07;;;;;;;25.84;41.31;97788.03;7322514;19;130390;-45
2021/12/01 06:11:59;;;;;;;30.17;3.30;;;;;;;25.81;42.42;97782.38;7321327;19;129736;-47
2021/12/01 06:14:25;;;;;;;25.83;2.70;;;;;;;25.72;42.69;97757.31;7322324;19;129897;-46
2021/12/01 06:16:51;;;;;;;33.30;3.33;;;;;;;25.78;42.73;97767.81;7322523;19;130362;-47
2021/12/01 06:19:16;;;;;;;36.77;3.87;;;;;;;25.77;43.66;97766.19;7319910;19;129249;-47
2021/12/01 06:21:42;;;;;;;30.47;3.60;;;;;;;25.82;43.35;97769.00;7316061;19;130081;-49
2021/12/01 06:24:07;;;;;;;27.52;3.22;;;;;;;25.81;43.89;97764.75;7319496;19;130875;-50
2021/12/01 06:26:33;;;;;;;30.73;3.42;;;;;;;25.82;43.65;97758.47;7318657;19;129267;-47
2021/12/01 06:28:58;;;;;;;12.52;1.45;;;;;;;25.75;43.91;97756.88;7320757;19;128864;-48
2021/12/01 06:31:23;;;;;;;36.73;3.87;;;;;;;25.70;44.15;97739.09;7319685;19;129271;-46
2021/12/01 06:33:49;;;;;;;35.77;4.17;;;;;;;25.82;44.00;97742.66;7318349;19;129644;-48
2021/12/01 06:36:14;;;;;;;23.85;2.80;;;;;;;25.81;43.71;97746.31;7318427;19;130381;-48
2021/12/01 06:38:41;;;;;;;33.47;2.97;;;;;;;25.83;43.79;97741.66;7320892;19;129172;-47
2021/12/01 06:41:08;;;;;;;31.75;3.10;;;;;;;25.89;43.67;97740.81;7320459;19;129382;-48
2021/12/01 06:43:33;;;;;;;38.28;3.97;;;;;;;25.87;43.97;97736.75;7320085;19;129294;-48
2021/12/01 06:45:59;;;;;;;19.40;2.23;;;;;;;25.82;43.62;97737.41;7319098;19;130335;-49
2021/12/01 06:48:25;;;;;;;29.93;3.30;;;;;;;25.81;43.87;97730.53;7322264;19;129562;-48
2021/12/01 06:50:51;;;;;;;37.97;4.23;;;;;;;25.84;44.31;97735.38;7320905;19;129305;-47
2021/12/01 06:53:16;;;;;;;24.70;3.27;;;;;;;25.83;43.66;97728.50;7320985;19;129488;-47
2021/12/01 06:55:42;;;;;;;50.33;5.28;;;;;;;25.84;43.76;97719.56;7316173;19;129263;-47
2021/12/01 06:58:07;;;;;;;18.92;2.05;;;;;;;25.89;44.00;97717.09;7317373;19;129169;-47
2021/12/01 07:00:33;;;;;;;26.67;2.87;;;;;;;25.79;43.72;97705.41;7321260;19;130014;-48
2021/12/01 07:02:58;;;;;;;19.27;2.20;;;;;;;25.90;43.99;97712.66;7321074;19;129256;-48
2021/12/01 07:05:23;;;;;;;48.72;4.78;;;;;;;25.91;44.18;97725.59;7316944;19;130382;-47
2021/12/01 07:07:49;;;;;;;35.90;3.67;;;;;;;25.90;43.66;97716.06;7318331;19;129602;-47
2021/12/01 07:10:15;;;;;;;19.75;2.42;;;;;;;25.87;44.32;97705.16;7321372;19;128901;-48
2021/12/01 07:12:41;;;;;;;27.70;2.88;;;;;;;25.87;44.20;97698.06;7318389;19;132244;-45
2021/12/01 07:15:08;;;;;;;20.35;2.00;;;;;;;25.85;44.16;97697.47;7309132;19;130344;-47
2021/12/01 07:17:34;;;;;;;20.30;2.00;;;;;;;25.85;44.49;97692.22;7312257;19;129065;-46
2021/12/01 07:19:59;;;;;;;85.50;6.67;;;;;;;25.83;44.59;97690.81;7309685;19;130006;-52
2021/12/01 07:22:24;;;;;;;30.42;3.38;;;;;;;25.82;43.94;97679.47;7309992;19;130137;-50
2021/12/01 07:24:50;;;;;;;31.93;4.43;;;;;;;25.84;44.26;97677.44;7308757;19;129207;-49
2021/12/01 07:27:16;;;;;;;23.50;3.13;;;;;;;25.84;44.62;97681.91;7305897;19;130753;-52
2021/12/01 07:29:42;;;;;;;19.80;2.73;;;;;;;25.75;44.04;97657.66;7311869;19;130351;-53
2021/12/01 07:32:08;;;;;;;15.80;2.00;;;;;;;25.83;44.86;97665.31;7308926;19;130142;-51
2021/12/01 07:34:41;;;;;;;14.77;2.10;;;;;;;25.86;44.41;97653.53;7310282;19;129202;-52
2021/12/01 07:37:10;;;;;;;15.07;2.10;;;;;;;25.85;44.69;97657.19;7309988;19;129298;-49
2021/12/01 07:39:35;;;;;;;16.73;2.20;;;;;;;25.79;44.05;97634.34;7310010;19;129899;-52
2021/12/01 07:42:01;;;;;;;22.83;3.33;;;;;;;25.88;44.76;97646.22;7310765;19;129163;-48
2021/12/01 07:44:26;;;;;;;26.33;3.13;;;;;;;25.80;44.49;97642.03;7306654;19;129304;-49
2021/12/01 07:46:51;;;;;;;20.90;2.47;;;;;;;25.82;44.59;97647.09;7311742;19;129306;-50
2021/12/01 07:49:19;;;;;;;23.13;2.83;;;;;;;25.87;44.23;97650.69;7309437;19;129547;-46
2021/12/01 07:51:44;;;;;;;42.50;5.72;;;;;;;25.84;44.93;97645.84;7287104;19;130136;-47
2021/12/01 07:54:10;;;;;;;20.30;2.53;;;;;;;25.84;44.64;97631.88;7298888;19;129636;-50
2021/12/01 07:56:35;;;;;;;20.70;2.70;;;;;;;25.87;44.50;97634.88;7313132;19;130787;-51
2021/12/01 07:59:00;;;;;;;25.37;2.63;;;;;;;25.83;45.13;97636.34;7303798;19;130550;-47
2021/12/01 08:01:26;;;;;;;20.70;2.78;;;;;;;25.78;44.11;97630.91;7313694;19;130398;-47
2021/12/01 08:03:51;;;;;;;26.07;3.53;;;;;;;25.86;44.68;97649.09;7311277;19;130314;-51
2021/12/01 08:06:17;;;;;;;22.25;2.88;;;;;;;25.84;44.68;97640.59;7310520;19;129608;-50
2021/12/01 08:08:42;;;;;;;16.93;2.23;;;;;;;25.84;44.79;97640.59;7311343;19;131275;-49
2021/12/01 08:11:07;;;;;;;19.03;2.10;;;;;;;25.85;45.04;97636.13;7312290;19;129041;-47
2021/12/01 08:13:33;;;;;;;15.70;1.83;;;;;;;25.88;44.52;97647.06;7310949;19;129202;-47
2021/12/01 08:16:00;;;;;;;15.55;1.67;;;;;;;25.92;44.90;97637.69;7302794;19;129817;-47
2021/12/01 08:18:25;;;;;;;15.93;2.17;;;;;;;25.90;44.89;97639.72;7312256;19;130079;-48
2021/12/01 08:20:50;;;;;;;13.37;1.70;;;;;;;25.93;44.44;97641.94;7313129;19;129626;-48
2021/12/01 08:23:16;;;;;;;81.80;11.10;;;;;;;25.83;44.96;97628.44;7303641;19;129223;-46
2021/12/01 08:25:41;;;;;;;18.73;2.27;;;;;;;25.91;44.95;97635.25;7308025;19;128883;-49
2021/12/01 08:28:07;;;;;;;41.97;4.43;;;;;;;25.92;44.84;97627.16;7313082;19;129594;-48
2021/12/01 08:30:32;;;;;;;21.98;2.63;;;;;;;25.92;44.26;97618.44;7310586;19;130070;-48
2021/12/01 08:32:58;;;;;;;28.70;3.63;;;;;;;25.86;44.86;97604.31;7313873;19;129544;-47
2021/12/01 08:35:24;;;;;;;31.57;4.37;;;;;;;25.91;44.26;97609.75;7303419;19;130585;-48
2021/12/01 08:37:50;;;;;;;20.20;2.67;;;;;;;25.92;44.31;97606.09;7311379;19;129390;-47
2021/12/01 08:40:18;;;;;;;17.57;2.10;;;;;;;25.83;44.64;97585.50;7308496;19;129541;-47
2021/12/01 08:42:44;;;;;;;17.27;2.05;;;;;;;25.94;45.00;97595.34;7312785;19;130523;-48
2021/12/01 08:45:10;;;;;;;28.42;2.92;;;;;;;25.91;44.76;97593.94;7307415;19;130221;-49
2021/12/01 08:47:35;;;;;;;27.60;3.72;;;;;;;25.91;44.50;97587.88;7310926;19;131209;-52
2021/12/01 08:50:01;;;;;;;14.88;2.15;;;;;;;25.82;44.72;97568.13;7303888;19;129975;-47
2021/12/01 08:52:27;;;;;;;59.97;6.15;;;;;;;25.96;44.71;97583.59;7309349;19;131560;-49
2021/12/01 08:54:53;;;;;;;13.18;1.77;;;;;;;25.94;44.34;97569.81;7297166;19;129568;-48
2021/12/01 08:57:19;;;;;;;24.58;2.97;;;;;;;25.99;44.59;97580.50;7309728;19;128864;-48
2021/12/01 08:59:48;;;;;;;15.57;1.70;;;;;;;25.98;44.22;97563.06;7303387;19;130500;-49
2021/12/01 09:02:13;;;;;;;15.10;1.75;;;;;;;25.94;45.04;97556.66;7312435;19;129291;-49
2021/12/01 09:04:39;;;;;;;17.70;2.20;;;;;;;25.94;45.21;97556.66;7302187;19;130779;-52
2021/12/01 09:07:04;;;;;;;18.07;2.27;;;;;;;25.96;45.02;97544.09;7310153;19;130155;-51
2021/12/01 09:09:30;;;;;;;21.80;2.67;;;;;;;25.90;44.38;97528.34;7302959;19;130282;-47
2021/12/01 09:11:56;;;;;;;21.47;2.70;;;;;;;25.94;44.85;97532.97;7304379;19;129709;-49
2021/12/01 09:14:25;;;;;;;28.20;3.13;;;;;;;25.98;44.63;97520.16;7310571;19;128953;-48
2021/12/01 09:16:53;;;;;;;22.38;2.80;;;;;;;25.93;44.75;97512.94;7303764;19;130734;-50
2021/12/01 09:19:19;;;;;;;25.30;3.03;;;;;;;25.97;45.03;97505.38;7308669;19;129027;-47
2021/12/01 09:21:45;;;;;;;6.47;1.92;;;;;;;25.95;44.72;97499.53;7291588;19;130887;-46
2021/12/01 09:24:10;;;;;;;7.30;1.63;;;;;;;25.90;44.57;97502.81;7307453;19;128837;-55
2021/12/01 09:26:36;;;;;;;29.90;3.27;;;;;;;25.93;44.52;97494.50;7296573;19;130066;-50
2021/12/01 09:29:02;;;;;;;19.70;2.07;;;;;;;25.97;45.07;97486.94;7309794;19;130532;-47
2021/12/01 09:31:28;;;;;;;21.23;2.33;;;;;;;25.98;44.48;97489.34;7306064;19;131768;-47
2021/12/01 09:33:54;;;;;;;26.50;3.60;;;;;;;25.96;44.73;97480.88;7303653;19;131464;-47
2021/12/01 09:36:19;;;;;;;21.20;2.50;;;;;;;25.98;45.13;97476.19;7308687;19;129055;-49
2021/12/01 09:38:45;;;;;;;22.27;2.58;;;;;;;25.92;45.13;97463.91;7297872;19;130543;-48
2021/12/01 09:41:11;;;;;;;16.75;1.90;;;;;;;25.97;44.88;97468.50;7310467;19;129119;-48
2021/12/01 09:43:36;;;;;;;74.15;11.02;;;;;;;25.98;44.71;97470.91;7296038;19;129455;-48
2021/12/01 09:46:04;;;;;;;29.47;3.90;;;;;;;26.02;44.38;97476.59;7304260;19;129133;-48
2021/12/01 09:51:08;;;;;;;23.52;2.53;;;;;;;25.96;44.80;97454.56;7292289;19;133018;-47
2021/12/01 09:53:34;;;;;;;34.60;3.55;;;;;;;25.92;44.99;97442.84;7305639;19;129204;-47
2021/12/01 09:56:00;;;;;;;16.45;2.00;;;;;;;26.01;44.39;97443.34;7302761;19;129580;-51
2021/12/01 09:58:31;;;;;;;32.23;3.77;;;;;;;26.02;44.74;97442.34;7307239;19;129070;-50
2021/12/01 10:01:04;;;;;;;26.35;3.28;;;;;;;25.98;44.55;97447.22;7297670;19;131157;-51
2021/12/01 10:03:29;;;;;;;28.88;3.40;;;;;;;25.98;44.56;97439.31;7308808;19;129394;-50
2021/12/01 10:06:02;;;;;;;11.53;1.43;;;;;;;25.99;44.46;97440.94;7298986;19;129060;-48
2021/12/01 10:08:37;;;;;;;27.80;3.55;;;;;;;26.00;44.88;97432.00;7307978;19;131684;-51
2021/12/01 10:11:10;;;;;;;20.23;2.15;;;;;;;26.02;44.43;97421.28;7301905;19;129797;-50
2021/12/01 10:13:40;;;;;;;25.23;3.22;;;;;;;26.01;44.82;97412.59;7309225;19;130739;-51
2021/12/01 10:16:08;;;;;;;11.70;1.58;;;;;;;26.07;44.96;97424.06;7301183;19;128827;-52
2021/12/01 10:18:42;;;;;;;27.77;3.28;;;;;;;26.04;45.08;97404.25;7308752;19;129953;-52
2021/12/01 10:21:11;;;;;;;19.35;2.40;;;;;;;26.00;45.23;97405.69;7306721;19;130465;-46
2021/12/01 10:23:41;;;;;;;22.38;2.47;;;;;;;26.02;45.22;97408.13;7309127;19;129068;-48
2021/12/01 10:26:10;;;;;;;24.75;3.13;;;;;;;26.01;44.66;97406.50;7301726;19;129326;-49
2021/12/01 10:28:39;;;;;;;19.63;2.17;;;;;;;26.00;44.63;97402.25;7305974;19;129312;-53
2021/12/01 10:31:04;;;;;;;21.23;2.55;;;;;;;26.04;44.68;97398.16;7304753;19;130811;-52
2021/12/01 10:33:30;;;;;;;18.00;1.97;;;;;;;25.99;44.58;97396.19;7309189;19;129173;-51
2021/12/01 10:36:00;;;;;;;23.53;2.60;;;;;;;26.07;44.77;97388.00;7304028;19;129074;-49
2021/12/01 10:38:36;;;;;;;19.90;2.97;;;;;;;26.03;44.89;97381.56;7304981;19;130690;-52
2021/12/01 10:41:07;;;;;;;32.33;4.13;;;;;;;26.06;44.69;97385.59;7297525;19;131352;-51
2021/12/01 10:43:45;;;;;;;12.20;1.65;;;;;;;25.99;45.13;97383.00;7307877;19;129791;-49
2021/12/01 10:46:17;;;;;;;21.40;2.53;;;;;;;26.04;44.91;97388.44;7304051;19;129716;-48
2021/12/01 10:48:45;;;;;;;19.27;2.47;;;;;;;25.93;44.75;97359.41;7306772;19;131075;-49
2021/12/01 10:51:30;;;;;;;19.10;3.00;;;;;;;26.03;45.26;97365.75;7305470;19;131211;-52
2021/12/01 10:53:56;;;;;;;16.98;3.08;;;;;;;25.99;44.78;97351.41;7310114;19;130016;-52
2021/12/01 10:56:21;;;;;;;29.02;4.15;;;;;;;26.01;44.87;97362.56;7311844;19;129025;-49
2021/12/01 10:58:47;;;;;;;24.33;2.93;;;;;;;26.00;44.44;97371.44;7311879;19;129622;-45
2021/12/01 11:01:24;;;;;;;18.83;1.93;;;;;;;26.00;44.81;97355.66;7303815;19;130408;-48
2021/12/01 11:03:51;;;;;;;;;;;;;;;26.01;44.41;97338.88;7316914;19;130509;-48
2021/12/01 11:06:20;;;;;;;22.35;2.50;;;;;;;26.04;44.42;97335.78;7304361;19;129955;-49
2021/12/01 11:08:48;;;;;;;89.53;8.98;;;;;;;26.07;44.64;97335.34;7314628;19;130141;-49
2021/12/01 11:11:17;;;;;;;81.47;12.65;;;;;;;26.04;44.41;97327.88;7301260;19;129852;-50
2021/12/01 11:13:45;;;;;;;20.08;2.83;;;;;;;26.03;44.63;97336.78;7296307;19;130998;-48
2021/12/01 11:16:13;;;;;;;21.42;2.65;;;;;;;26.03;44.44;97334.16;7310525;19;129442;-48
2021/12/01 11:18:44;;;;;;;30.55;3.45;;;;;;;26.04;45.16;97330.53;7311584;19;130482;-49